sensor_id;sensor_type;location;lat;lon;timestamp;temperature;humidity
35258;DHT22;21385;50.878;8.050;2022-07-21T00:08:54;22.50;99.90
35258;DHT22;21385;50.878;8.050;2022-07-21T00:11:20;22.50;99.90
35258;DHT22;21385;50.878;8.050;2022-07-21T00:13:45;22.50;99.90
35258;DHT22;21385;50.878;8.050;2022-07-21T00:16:11;22.50;99.90
35258;DHT22;21385;50.878;8.050;2022-07-21T00:18:37;22.50;99.90
35258;DHT22;21385;50.878;8.050;2022-07-21T00:21:03;22.50;99.90
35258;DHT22;21385;50.878;8.050;2022-07-21T00:23:28;22.50;99.90
35258;DHT22;21385;50.878;8.050;2022-07-21T00:25:54;22.40;99.90
35258;DHT22;21385;50.878;8.050;2022-07-21T00:28:20;22.40;99.90
35258;DHT22;21385;50.878;8.050;2022-07-21T00:30:46;22.40;99.90
35258;DHT22;21385;50.878;8.050;2022-07-21T00:33:12;22.30;99.90
35258;DHT22;21385;50.878;8.050;2022-07-21T00:35:37;22.30;99.90
35258;DHT22;21385;50.878;8.050;2022-07-21T00:38:03;22.20;99.90
35258;DHT22;21385;50.878;8.050;2022-07-21T00:40:29;22.20;99.90
35258;DHT22;21385;50.878;8.050;2022-07-21T00:42:55;22.10;99.90
35258;DHT22;21385;50.878;8.050;2022-07-21T00:45:21;22.20;99.90
35258;DHT22;21385;50.878;8.050;2022-07-21T00:47:47;22.20;99.90
35258;DHT22;21385;50.878;8.050;2022-07-21T00:50:16;22.20;99.90
35258;DHT22;21385;50.878;8.050;2022-07-21T00:52:42;22.30;99.90
35258;DHT22;21385;50.878;8.050;2022-07-21T00:55:12;22.30;99.90
35258;DHT22;21385;50.878;8.050;2022-07-21T00:57:38;22.30;99.90
35258;DHT22;21385;50.878;8.050;2022-07-21T01:00:06;22.30;99.90
35258;DHT22;21385;50.878;8.050;2022-07-21T01:02:32;22.00;99.90
35258;DHT22;21385;50.878;8.050;2022-07-21T01:05:01;21.60;99.90
35258;DHT22;21385;50.878;8.050;2022-07-21T01:07:26;21.10;99.90
35258;DHT22;21385;50.878;8.050;2022-07-21T01:09:52;20.70;99.90
35258;DHT22;21385;50.878;8.050;2022-07-21T01:12:18;20.40;99.90
35258;DHT22;21385;50.878;8.050;2022-07-21T01:14:44;20.30;99.90
35258;DHT22;21385;50.878;8.050;2022-07-21T01:17:10;20.20;99.90
35258;DHT22;21385;50.878;8.050;2022-07-21T01:19:36;20.10;99.90
35258;DHT22;21385;50.878;8.050;2022-07-21T01:22:03;19.80;99.90
35258;DHT22;21385;50.878;8.050;2022-07-21T01:24:28;19.70;99.90
35258;DHT22;21385;50.878;8.050;2022-07-21T01:26:54;19.70;99.90
35258;DHT22;21385;50.878;8.050;2022-07-21T01:29:21;19.80;99.90
35258;DHT22;21385;50.878;8.050;2022-07-21T01:31:48;19.90;99.90
35258;DHT22;21385;50.878;8.050;2022-07-21T01:34:14;19.90;99.90
35258;DHT22;21385;50.878;8.050;2022-07-21T01:36:40;20.00;99.90
35258;DHT22;21385;50.878;8.050;2022-07-21T01:39:06;20.00;99.90
35258;DHT22;21385;50.878;8.050;2022-07-21T01:41:51;20.10;99.90
35258;DHT22;21385;50.878;8.050;2022-07-21T01:44:17;20.20;99.90
35258;DHT22;21385;50.878;8.050;2022-07-21T01:46:45;20.20;99.90
35258;DHT22;21385;50.878;8.050;2022-07-21T01:49:12;20.30;99.90
35258;DHT22;21385;50.878;8.050;2022-07-21T01:51:39;20.40;99.90
35258;DHT22;21385;50.878;8.050;2022-07-21T01:54:05;20.30;99.90
35258;DHT22;21385;50.878;8.050;2022-07-21T01:56:33;20.30;99.90
35258;DHT22;21385;50.878;8.050;2022-07-21T01:58:59;20.40;99.90
35258;DHT22;21385;50.878;8.050;2022-07-21T02:01:26;20.40;99.90
35258;DHT22;21385;50.878;8.050;2022-07-21T02:03:53;20.50;99.90
35258;DHT22;21385;50.878;8.050;2022-07-21T02:06:20;20.60;99.90
35258;DHT22;21385;50.878;8.050;2022-07-21T02:08:45;20.60;99.90
35258;DHT22;21385;50.878;8.050;2022-07-21T02:11:15;20.70;99.90
35258;DHT22;21385;50.878;8.050;2022-07-21T02:13:41;20.70;99.90
35258;DHT22;21385;50.878;8.050;2022-07-21T02:16:07;20.60;99.90
35258;DHT22;21385;50.878;8.050;2022-07-21T02:18:33;20.40;99.90
35258;DHT22;21385;50.878;8.050;2022-07-21T02:20:59;20.20;99.90
35258;DHT22;21385;50.878;8.050;2022-07-21T02:23:25;20.10;99.90
35258;DHT22;21385;50.878;8.050;2022-07-21T02:25:51;20.00;99.90
35258;DHT22;21385;50.878;8.050;2022-07-21T02:28:22;19.90;99.90
35258;DHT22;21385;50.878;8.050;2022-07-21T02:30:48;19.90;99.90
35258;DHT22;21385;50.878;8.050;2022-07-21T02:33:14;19.80;99.90
35258;DHT22;21385;50.878;8.050;2022-07-21T02:35:41;19.70;99.90
35258;DHT22;21385;50.878;8.050;2022-07-21T02:38:07;19.70;99.90
35258;DHT22;21385;50.878;8.050;2022-07-21T02:40:33;19.70;99.90
35258;DHT22;21385;50.878;8.050;2022-07-21T02:42:59;19.70;99.90
35258;DHT22;21385;50.878;8.050;2022-07-21T02:45:25;19.70;99.90
35258;DHT22;21385;50.878;8.050;2022-07-21T02:48:00;19.70;99.90
35258;DHT22;21385;50.878;8.050;2022-07-21T02:50:28;19.70;99.90
35258;DHT22;21385;50.878;8.050;2022-07-21T02:52:59;19.70;99.90
35258;DHT22;21385;50.878;8.050;2022-07-21T02:55:26;19.70;99.90
35258;DHT22;21385;50.878;8.050;2022-07-21T03:00:40;19.80;99.90
35258;DHT22;21385;50.878;8.050;2022-07-21T03:03:06;19.90;99.90
35258;DHT22;21385;50.878;8.050;2022-07-21T03:05:33;19.90;99.90
35258;DHT22;21385;50.878;8.050;2022-07-21T03:07:58;20.00;99.90
35258;DHT22;21385;50.878;8.050;2022-07-21T03:10:24;20.10;99.90
35258;DHT22;21385;50.878;8.050;2022-07-21T03:12:50;20.20;99.90
35258;DHT22;21385;50.878;8.050;2022-07-21T03:15:15;20.30;99.90
35258;DHT22;21385;50.878;8.050;2022-07-21T03:17:41;20.40;99.90
35258;DHT22;21385;50.878;8.050;2022-07-21T03:20:07;20.50;99.90
35258;DHT22;21385;50.878;8.050;2022-07-21T03:22:33;20.50;99.90
35258;DHT22;21385;50.878;8.050;2022-07-21T03:24:59;20.50;99.90
35258;DHT22;21385;50.878;8.050;2022-07-21T03:27:24;20.60;99.90
35258;DHT22;21385;50.878;8.050;2022-07-21T03:29:50;20.60;99.90
35258;DHT22;21385;50.878;8.050;2022-07-21T03:32:16;20.60;99.90
35258;DHT22;21385;50.878;8.050;2022-07-21T03:34:42;20.60;99.90
35258;DHT22;21385;50.878;8.050;2022-07-21T03:37:07;20.60;99.90
35258;DHT22;21385;50.878;8.050;2022-07-21T03:39:33;20.60;99.90
35258;DHT22;21385;50.878;8.050;2022-07-21T03:41:59;20.60;99.90
35258;DHT22;21385;50.878;8.050;2022-07-21T03:44:24;20.50;99.90
35258;DHT22;21385;50.878;8.050;2022-07-21T03:46:50;20.50;99.90
35258;DHT22;21385;50.878;8.050;2022-07-21T03:49:15;20.50;99.90
35258;DHT22;21385;50.878;8.050;2022-07-21T03:51:41;20.60;99.90
35258;DHT22;21385;50.878;8.050;2022-07-21T03:54:06;20.60;99.90
35258;DHT22;21385;50.878;8.050;2022-07-21T03:56:32;20.60;99.90
35258;DHT22;21385;50.878;8.050;2022-07-21T03:58:57;20.90;99.90
35258;DHT22;21385;50.878;8.050;2022-07-21T04:01:23;21.00;99.90
35258;DHT22;21385;50.878;8.050;2022-07-21T04:03:49;21.00;99.90
35258;DHT22;21385;50.878;8.050;2022-07-21T04:06:14;21.10;99.90
35258;DHT22;21385;50.878;8.050;2022-07-21T04:08:40;21.20;99.90
35258;DHT22;21385;50.878;8.050;2022-07-21T04:11:05;21.30;99.90
35258;DHT22;21385;50.878;8.050;2022-07-21T04:13:31;21.40;99.90
35258;DHT22;21385;50.878;8.050;2022-07-21T04:15:57;21.50;99.90
35258;DHT22;21385;50.878;8.050;2022-07-21T04:18:22;21.60;99.90
35258;DHT22;21385;50.878;8.050;2022-07-21T04:20:48;21.80;99.90
35258;DHT22;21385;50.878;8.050;2022-07-21T04:23:13;21.80;99.90
35258;DHT22;21385;50.878;8.050;2022-07-21T04:25:39;21.80;99.90
35258;DHT22;21385;50.878;8.050;2022-07-21T04:28:05;21.70;99.90
35258;DHT22;21385;50.878;8.050;2022-07-21T04:30:32;21.70;99.90
35258;DHT22;21385;50.878;8.050;2022-07-21T04:32:58;21.70;99.90
35258;DHT22;21385;50.878;8.050;2022-07-21T04:35:24;21.70;99.90
35258;DHT22;21385;50.878;8.050;2022-07-21T04:37:50;21.80;99.90
35258;DHT22;21385;50.878;8.050;2022-07-21T04:40:16;21.80;99.90
35258;DHT22;21385;50.878;8.050;2022-07-21T04:42:42;21.80;99.90
35258;DHT22;21385;50.878;8.050;2022-07-21T04:45:09;21.80;99.90
35258;DHT22;21385;50.878;8.050;2022-07-21T04:47:47;21.80;99.90
35258;DHT22;21385;50.878;8.050;2022-07-21T04:50:14;21.70;99.90
35258;DHT22;21385;50.878;8.050;2022-07-21T04:52:40;21.60;99.90
35258;DHT22;21385;50.878;8.050;2022-07-21T04:55:06;21.50;99.90
35258;DHT22;21385;50.878;8.050;2022-07-21T04:57:39;21.60;99.90
35258;DHT22;21385;50.878;8.050;2022-07-21T05:00:07;21.50;99.90
35258;DHT22;21385;50.878;8.050;2022-07-21T05:02:33;21.50;99.90
35258;DHT22;21385;50.878;8.050;2022-07-21T05:04:58;21.40;99.90
35258;DHT22;21385;50.878;8.050;2022-07-21T05:07:24;21.40;99.90
35258;DHT22;21385;50.878;8.050;2022-07-21T05:12:15;21.00;99.90
35258;DHT22;21385;50.878;8.050;2022-07-21T05:14:41;20.90;99.90
35258;DHT22;21385;50.878;8.050;2022-07-21T05:17:06;20.90;99.90
35258;DHT22;21385;50.878;8.050;2022-07-21T05:19:32;20.90;99.90
35258;DHT22;21385;50.878;8.050;2022-07-21T05:21:57;20.90;99.90
35258;DHT22;21385;50.878;8.050;2022-07-21T05:24:23;20.90;99.90
35258;DHT22;21385;50.878;8.050;2022-07-21T05:26:49;20.80;99.90
35258;DHT22;21385;50.878;8.050;2022-07-21T05:29:14;20.80;99.90
35258;DHT22;21385;50.878;8.050;2022-07-21T05:31:40;20.90;99.90
35258;DHT22;21385;50.878;8.050;2022-07-21T05:34:05;20.80;99.90
35258;DHT22;21385;50.878;8.050;2022-07-21T05:36:31;20.80;99.90
35258;DHT22;21385;50.878;8.050;2022-07-21T05:38:56;20.80;99.90
35258;DHT22;21385;50.878;8.050;2022-07-21T05:41:22;20.80;99.90
35258;DHT22;21385;50.878;8.050;2022-07-21T05:43:48;20.80;99.90
35258;DHT22;21385;50.878;8.050;2022-07-21T05:46:14;20.70;99.90
35258;DHT22;21385;50.878;8.050;2022-07-21T05:48:39;20.80;99.90
35258;DHT22;21385;50.878;8.050;2022-07-21T05:51:05;20.60;99.90
35258;DHT22;21385;50.878;8.050;2022-07-21T05:53:31;20.40;99.90
35258;DHT22;21385;50.878;8.050;2022-07-21T05:55:57;20.10;99.90
35258;DHT22;21385;50.878;8.050;2022-07-21T05:58:23;19.90;99.90
35258;DHT22;21385;50.878;8.050;2022-07-21T06:00:50;19.70;99.90
35258;DHT22;21385;50.878;8.050;2022-07-21T06:03:37;19.70;99.90
35258;DHT22;21385;50.878;8.050;2022-07-21T06:06:03;19.80;99.90
35258;DHT22;21385;50.878;8.050;2022-07-21T06:08:29;19.80;99.90
35258;DHT22;21385;50.878;8.050;2022-07-21T06:10:55;19.80;99.90
35258;DHT22;21385;50.878;8.050;2022-07-21T06:13:21;19.90;99.90
35258;DHT22;21385;50.878;8.050;2022-07-21T06:15:47;19.90;99.90
35258;DHT22;21385;50.878;8.050;2022-07-21T06:18:12;20.10;99.90
35258;DHT22;21385;50.878;8.050;2022-07-21T06:20:38;20.20;99.90
35258;DHT22;21385;50.878;8.050;2022-07-21T06:23:05;20.20;99.90
35258;DHT22;21385;50.878;8.050;2022-07-21T06:25:30;20.40;99.90
35258;DHT22;21385;50.878;8.050;2022-07-21T06:27:56;20.50;99.90
35258;DHT22;21385;50.878;8.050;2022-07-21T06:30:21;20.50;99.90
35258;DHT22;21385;50.878;8.050;2022-07-21T06:32:47;20.40;99.90
35258;DHT22;21385;50.878;8.050;2022-07-21T06:35:13;20.30;99.90
35258;DHT22;21385;50.878;8.050;2022-07-21T06:37:38;20.20;99.90
35258;DHT22;21385;50.878;8.050;2022-07-21T06:40:09;20.30;99.90
35258;DHT22;21385;50.878;8.050;2022-07-21T06:42:35;20.30;99.90
35258;DHT22;21385;50.878;8.050;2022-07-21T06:45:00;20.20;99.90
35258;DHT22;21385;50.878;8.050;2022-07-21T06:47:26;20.10;99.90
35258;DHT22;21385;50.878;8.050;2022-07-21T06:49:51;20.30;99.90
35258;DHT22;21385;50.878;8.050;2022-07-21T06:52:17;20.40;99.90
35258;DHT22;21385;50.878;8.050;2022-07-21T06:54:43;20.40;99.90
35258;DHT22;21385;50.878;8.050;2022-07-21T06:57:08;20.50;99.90
35258;DHT22;21385;50.878;8.050;2022-07-21T06:59:34;20.50;99.90
35258;DHT22;21385;50.878;8.050;2022-07-21T07:02:00;20.40;99.90
35258;DHT22;21385;50.878;8.050;2022-07-21T07:04:25;20.30;99.90
35258;DHT22;21385;50.878;8.050;2022-07-21T07:06:51;20.10;99.90
35258;DHT22;21385;50.878;8.050;2022-07-21T07:09:19;20.20;99.90
35258;DHT22;21385;50.878;8.050;2022-07-21T07:11:45;20.40;99.90
35258;DHT22;21385;50.878;8.050;2022-07-21T07:14:13;20.60;99.90
35258;DHT22;21385;50.878;8.050;2022-07-21T07:16:39;20.60;99.90
35258;DHT22;21385;50.878;8.050;2022-07-21T07:19:05;20.50;99.90
35258;DHT22;21385;50.878;8.050;2022-07-21T07:21:30;20.50;99.90
35258;DHT22;21385;50.878;8.050;2022-07-21T07:23:56;20.60;99.90
35258;DHT22;21385;50.878;8.050;2022-07-21T07:26:22;20.70;99.90
35258;DHT22;21385;50.878;8.050;2022-07-21T07:28:47;20.80;99.90
35258;DHT22;21385;50.878;8.050;2022-07-21T07:31:13;20.90;99.90
35258;DHT22;21385;50.878;8.050;2022-07-21T07:33:39;20.90;99.90
35258;DHT22;21385;50.878;8.050;2022-07-21T07:36:04;21.00;99.90
35258;DHT22;21385;50.878;8.050;2022-07-21T07:38:30;20.90;99.90
35258;DHT22;21385;50.878;8.050;2022-07-21T07:40:56;20.90;99.90
35258;DHT22;21385;50.878;8.050;2022-07-21T07:43:21;20.90;99.90
35258;DHT22;21385;50.878;8.050;2022-07-21T07:45:47;20.80;99.90
35258;DHT22;21385;50.878;8.050;2022-07-21T07:48:12;21.00;99.90
35258;DHT22;21385;50.878;8.050;2022-07-21T07:50:38;21.00;99.90
35258;DHT22;21385;50.878;8.050;2022-07-21T07:53:04;20.90;99.90
35258;DHT22;21385;50.878;8.050;2022-07-21T07:55:29;21.00;99.90
35258;DHT22;21385;50.878;8.050;2022-07-21T07:57:55;21.00;99.90
35258;DHT22;21385;50.878;8.050;2022-07-21T08:00:21;21.00;99.90
35258;DHT22;21385;50.878;8.050;2022-07-21T08:02:46;21.00;99.90
35258;DHT22;21385;50.878;8.050;2022-07-21T08:05:12;21.10;99.90
35258;DHT22;21385;50.878;8.050;2022-07-21T08:07:39;21.10;99.90
35258;DHT22;21385;50.878;8.050;2022-07-21T08:10:09;21.10;99.90
35258;DHT22;21385;50.878;8.050;2022-07-21T08:12:36;21.20;99.90
35258;DHT22;21385;50.878;8.050;2022-07-21T08:15:03;21.30;99.90
35258;DHT22;21385;50.878;8.050;2022-07-21T08:17:29;21.40;99.90
35258;DHT22;21385;50.878;8.050;2022-07-21T08:19:55;21.40;99.90
35258;DHT22;21385;50.878;8.050;2022-07-21T08:22:20;21.20;99.90
35258;DHT22;21385;50.878;8.050;2022-07-21T08:24:46;21.10;99.90
35258;DHT22;21385;50.878;8.050;2022-07-21T08:27:11;21.20;99.90
35258;DHT22;21385;50.878;8.050;2022-07-21T08:29:37;21.30;99.90
35258;DHT22;21385;50.878;8.050;2022-07-21T08:32:03;21.30;99.90
35258;DHT22;21385;50.878;8.050;2022-07-21T08:34:28;21.30;99.90
35258;DHT22;21385;50.878;8.050;2022-07-21T08:36:54;21.40;99.90
35258;DHT22;21385;50.878;8.050;2022-07-21T08:39:20;21.40;99.90
35258;DHT22;21385;50.878;8.050;2022-07-21T08:41:46;21.40;99.90
35258;DHT22;21385;50.878;8.050;2022-07-21T08:44:12;21.40;99.90
35258;DHT22;21385;50.878;8.050;2022-07-21T08:46:41;21.60;99.90
35258;DHT22;21385;50.878;8.050;2022-07-21T08:49:09;21.70;99.90
35258;DHT22;21385;50.878;8.050;2022-07-21T08:51:35;22.00;99.90
35258;DHT22;21385;50.878;8.050;2022-07-21T08:54:02;22.10;99.90
35258;DHT22;21385;50.878;8.050;2022-07-21T08:56:28;22.20;99.90
35258;DHT22;21385;50.878;8.050;2022-07-21T08:58:53;22.40;99.90
35258;DHT22;21385;50.878;8.050;2022-07-21T09:01:19;22.50;99.90
35258;DHT22;21385;50.878;8.050;2022-07-21T09:03:50;22.70;99.90
35258;DHT22;21385;50.878;8.050;2022-07-21T09:08:52;22.80;99.90
35258;DHT22;21385;50.878;8.050;2022-07-21T09:11:25;22.60;99.90
35258;DHT22;21385;50.878;8.050;2022-07-21T09:14:16;22.40;99.90
35258;DHT22;21385;50.878;8.050;2022-07-21T09:16:46;22.30;99.90
35258;DHT22;21385;50.878;8.050;2022-07-21T09:21:52;21.80;99.90
35258;DHT22;21385;50.878;8.050;2022-07-21T09:29:23;21.50;99.90
35258;DHT22;21385;50.878;8.050;2022-07-21T09:31:48;21.50;99.90
35258;DHT22;21385;50.878;8.050;2022-07-21T09:34:14;21.60;99.90
35258;DHT22;21385;50.878;8.050;2022-07-21T09:36:54;21.60;99.90
35258;DHT22;21385;50.878;8.050;2022-07-21T09:39:53;21.80;99.90
35258;DHT22;21385;50.878;8.050;2022-07-21T09:42:41;22.00;99.90
35258;DHT22;21385;50.878;8.050;2022-07-21T09:45:08;22.30;99.90
35258;DHT22;21385;50.878;8.050;2022-07-21T09:47:35;22.40;99.90
35258;DHT22;21385;50.878;8.050;2022-07-21T09:50:04;22.40;99.90
35258;DHT22;21385;50.878;8.050;2022-07-21T09:52:32;22.40;99.90
35258;DHT22;21385;50.878;8.050;2022-07-21T09:55:07;22.30;99.90
35258;DHT22;21385;50.878;8.050;2022-07-21T09:57:33;22.20;99.90
35258;DHT22;21385;50.878;8.050;2022-07-21T10:00:00;22.10;99.90
35258;DHT22;21385;50.878;8.050;2022-07-21T10:02:30;21.90;99.90
35258;DHT22;21385;50.878;8.050;2022-07-21T10:05:08;21.70;99.90
35258;DHT22;21385;50.878;8.050;2022-07-21T10:07:36;21.50;99.90
35258;DHT22;21385;50.878;8.050;2022-07-21T10:10:03;21.30;99.90
35258;DHT22;21385;50.878;8.050;2022-07-21T10:12:29;21.10;99.90
35258;DHT22;21385;50.878;8.050;2022-07-21T10:14:55;20.90;99.90
35258;DHT22;21385;50.878;8.050;2022-07-21T10:17:23;20.70;99.90
35258;DHT22;21385;50.878;8.050;2022-07-21T10:20:46;20.60;99.90
35258;DHT22;21385;50.878;8.050;2022-07-21T10:23:02;20.60;99.90
35258;DHT22;21385;50.878;8.050;2022-07-21T10:25:30;20.80;99.90
35258;DHT22;21385;50.878;8.050;2022-07-21T10:30:50;21.10;99.90
35258;DHT22;21385;50.878;8.050;2022-07-21T10:33:18;21.40;99.90
35258;DHT22;21385;50.878;8.050;2022-07-21T10:35:48;21.80;99.90
35258;DHT22;21385;50.878;8.050;2022-07-21T10:38:31;22.10;99.90
35258;DHT22;21385;50.878;8.050;2022-07-21T10:40:59;22.40;99.90
35258;DHT22;21385;50.878;8.050;2022-07-21T10:45:51;22.50;99.90
35258;DHT22;21385;50.878;8.050;2022-07-21T10:51:16;22.30;99.90
35258;DHT22;21385;50.878;8.050;2022-07-21T10:53:43;22.10;99.90
35258;DHT22;21385;50.878;8.050;2022-07-21T10:56:25;21.90;99.90
35258;DHT22;21385;50.878;8.050;2022-07-21T10:58:51;21.80;99.90
35258;DHT22;21385;50.878;8.050;2022-07-21T11:03:43;21.70;99.90
35258;DHT22;21385;50.878;8.050;2022-07-21T11:06:20;21.70;99.90
35258;DHT22;21385;50.878;8.050;2022-07-21T11:11:29;21.80;99.90
35258;DHT22;21385;50.878;8.050;2022-07-21T11:22:27;22.30;99.90
35258;DHT22;21385;50.878;8.050;2022-07-21T11:27:23;22.70;99.90
35258;DHT22;21385;50.878;8.050;2022-07-21T11:29:52;22.80;99.90
35258;DHT22;21385;50.878;8.050;2022-07-21T11:32:18;22.90;99.90
35258;DHT22;21385;50.878;8.050;2022-07-21T11:34:59;22.70;99.90
35258;DHT22;21385;50.878;8.050;2022-07-21T11:37:30;22.60;99.90
35258;DHT22;21385;50.878;8.050;2022-07-21T11:39:57;22.60;99.90
35258;DHT22;21385;50.878;8.050;2022-07-21T11:42:24;22.60;99.90
35258;DHT22;21385;50.878;8.050;2022-07-21T11:44:50;22.80;99.90
35258;DHT22;21385;50.878;8.050;2022-07-21T11:47:16;23.10;99.90
35258;DHT22;21385;50.878;8.050;2022-07-21T11:49:43;23.10;99.90
35258;DHT22;21385;50.878;8.050;2022-07-21T11:52:12;23.30;99.90
35258;DHT22;21385;50.878;8.050;2022-07-21T11:54:49;23.40;99.90
35258;DHT22;21385;50.878;8.050;2022-07-21T11:57:17;23.50;99.90
35258;DHT22;21385;50.878;8.050;2022-07-21T11:59:44;23.50;99.90
35258;DHT22;21385;50.878;8.050;2022-07-21T12:09:40;23.60;99.90
35258;DHT22;21385;50.878;8.050;2022-07-21T12:12:07;23.60;99.90
35258;DHT22;21385;50.878;8.050;2022-07-21T12:14:44;23.60;99.90
35258;DHT22;21385;50.878;8.050;2022-07-21T12:17:10;23.50;99.90
35258;DHT22;21385;50.878;8.050;2022-07-21T12:19:37;23.50;99.90
35258;DHT22;21385;50.878;8.050;2022-07-21T12:22:03;23.50;99.90
35258;DHT22;21385;50.878;8.050;2022-07-21T12:27:15;23.60;99.90
35258;DHT22;21385;50.878;8.050;2022-07-21T12:29:41;23.70;99.90
35258;DHT22;21385;50.878;8.050;2022-07-21T12:32:07;23.80;99.90
35258;DHT22;21385;50.878;8.050;2022-07-21T12:34:48;23.80;99.90
35258;DHT22;21385;50.878;8.050;2022-07-21T12:37:14;23.90;99.90
35258;DHT22;21385;50.878;8.050;2022-07-21T12:39:40;24.10;99.90
35258;DHT22;21385;50.878;8.050;2022-07-21T12:42:34;24.30;99.90
35258;DHT22;21385;50.878;8.050;2022-07-21T12:45:45;24.50;99.90
35258;DHT22;21385;50.878;8.050;2022-07-21T12:48:16;24.70;99.90
35258;DHT22;21385;50.878;8.050;2022-07-21T12:50:44;24.90;99.90
35258;DHT22;21385;50.878;8.050;2022-07-21T12:53:21;25.00;99.90
35258;DHT22;21385;50.878;8.050;2022-07-21T12:55:47;24.90;99.90
35258;DHT22;21385;50.878;8.050;2022-07-21T12:58:12;24.80;99.90
35258;DHT22;21385;50.878;8.050;2022-07-21T13:00:38;24.60;99.90
35258;DHT22;21385;50.878;8.050;2022-07-21T13:03:03;24.60;99.90
35258;DHT22;21385;50.878;8.050;2022-07-21T13:05:29;24.60;99.90
35258;DHT22;21385;50.878;8.050;2022-07-21T13:07:55;24.60;99.90
35258;DHT22;21385;50.878;8.050;2022-07-21T13:10:21;24.70;99.90
35258;DHT22;21385;50.878;8.050;2022-07-21T13:12:47;24.80;99.90
35258;DHT22;21385;50.878;8.050;2022-07-21T13:15:13;24.70;99.90
35258;DHT22;21385;50.878;8.050;2022-07-21T13:17:39;24.60;99.90
35258;DHT22;21385;50.878;8.050;2022-07-21T13:20:05;24.50;99.90
35258;DHT22;21385;50.878;8.050;2022-07-21T13:22:31;24.30;99.90
35258;DHT22;21385;50.878;8.050;2022-07-21T13:24:56;24.20;99.90
35258;DHT22;21385;50.878;8.050;2022-07-21T13:27:22;23.90;99.90
35258;DHT22;21385;50.878;8.050;2022-07-21T13:29:48;23.70;99.90
35258;DHT22;21385;50.878;8.050;2022-07-21T13:32:13;23.50;99.90
35258;DHT22;21385;50.878;8.050;2022-07-21T13:34:39;23.40;99.90
35258;DHT22;21385;50.878;8.050;2022-07-21T13:37:04;23.20;99.90
35258;DHT22;21385;50.878;8.050;2022-07-21T13:39:31;23.00;99.90
35258;DHT22;21385;50.878;8.050;2022-07-21T13:44:24;22.50;99.90
35258;DHT22;21385;50.878;8.050;2022-07-21T13:46:49;22.40;99.90
35258;DHT22;21385;50.878;8.050;2022-07-21T13:49:15;22.10;99.90
35258;DHT22;21385;50.878;8.050;2022-07-21T13:51:41;22.00;99.90
35258;DHT22;21385;50.878;8.050;2022-07-21T13:54:07;21.80;99.90
35258;DHT22;21385;50.878;8.050;2022-07-21T13:56:32;21.70;99.90
35258;DHT22;21385;50.878;8.050;2022-07-21T13:58:58;21.60;99.90
35258;DHT22;21385;50.878;8.050;2022-07-21T14:01:23;21.60;99.90
35258;DHT22;21385;50.878;8.050;2022-07-21T14:03:50;21.60;99.90
35258;DHT22;21385;50.878;8.050;2022-07-21T14:06:16;21.50;99.90
35258;DHT22;21385;50.878;8.050;2022-07-21T14:08:43;21.50;99.90
35258;DHT22;21385;50.878;8.050;2022-07-21T14:11:09;21.50;99.90
35258;DHT22;21385;50.878;8.050;2022-07-21T14:13:34;21.50;99.90
35258;DHT22;21385;50.878;8.050;2022-07-21T14:16:01;21.40;99.90
35258;DHT22;21385;50.878;8.050;2022-07-21T14:18:27;21.50;99.90
35258;DHT22;21385;50.878;8.050;2022-07-21T14:20:53;21.40;99.90
35258;DHT22;21385;50.878;8.050;2022-07-21T14:23:21;21.40;99.90
35258;DHT22;21385;50.878;8.050;2022-07-21T14:25:48;21.50;99.90
35258;DHT22;21385;50.878;8.050;2022-07-21T14:28:14;21.60;99.90
35258;DHT22;21385;50.878;8.050;2022-07-21T14:30:40;21.70;99.90
35258;DHT22;21385;50.878;8.050;2022-07-21T14:33:06;21.90;99.90
35258;DHT22;21385;50.878;8.050;2022-07-21T14:35:32;21.80;99.90
35258;DHT22;21385;50.878;8.050;2022-07-21T14:37:57;21.80;99.90
35258;DHT22;21385;50.878;8.050;2022-07-21T14:40:23;21.80;99.90
35258;DHT22;21385;50.878;8.050;2022-07-21T14:42:49;21.80;99.90
35258;DHT22;21385;50.878;8.050;2022-07-21T14:45:18;21.80;99.90
35258;DHT22;21385;50.878;8.050;2022-07-21T14:47:44;21.70;99.90
35258;DHT22;21385;50.878;8.050;2022-07-21T14:50:11;21.70;99.90
35258;DHT22;21385;50.878;8.050;2022-07-21T14:52:37;21.70;99.90
35258;DHT22;21385;50.878;8.050;2022-07-21T14:55:05;21.70;99.90
35258;DHT22;21385;50.878;8.050;2022-07-21T14:57:31;21.50;99.90
35258;DHT22;21385;50.878;8.050;2022-07-21T14:59:57;21.30;99.90
35258;DHT22;21385;50.878;8.050;2022-07-21T15:02:23;21.20;99.90
35258;DHT22;21385;50.878;8.050;2022-07-21T15:04:49;21.10;99.90
35258;DHT22;21385;50.878;8.050;2022-07-21T15:07:15;21.00;99.90
35258;DHT22;21385;50.878;8.050;2022-07-21T15:09:41;20.90;99.90
35258;DHT22;21385;50.878;8.050;2022-07-21T15:12:06;20.90;99.90
35258;DHT22;21385;50.878;8.050;2022-07-21T15:14:32;20.80;99.90
35258;DHT22;21385;50.878;8.050;2022-07-21T15:16:58;20.80;99.90
35258;DHT22;21385;50.878;8.050;2022-07-21T15:19:23;20.80;99.90
35258;DHT22;21385;50.878;8.050;2022-07-21T15:21:49;20.90;99.90
35258;DHT22;21385;50.878;8.050;2022-07-21T15:24:14;20.80;99.90
35258;DHT22;21385;50.878;8.050;2022-07-21T15:26:41;20.90;99.90
35258;DHT22;21385;50.878;8.050;2022-07-21T15:29:07;20.90;99.90
35258;DHT22;21385;50.878;8.050;2022-07-21T15:31:32;20.90;99.90
35258;DHT22;21385;50.878;8.050;2022-07-21T15:33:58;20.80;99.90
35258;DHT22;21385;50.878;8.050;2022-07-21T15:36:24;20.80;99.90
35258;DHT22;21385;50.878;8.050;2022-07-21T15:38:50;20.80;99.90
35258;DHT22;21385;50.878;8.050;2022-07-21T15:41:15;20.70;99.90
35258;DHT22;21385;50.878;8.050;2022-07-21T15:43:42;20.70;99.90
35258;DHT22;21385;50.878;8.050;2022-07-21T15:46:08;20.70;99.90
35258;DHT22;21385;50.878;8.050;2022-07-21T15:48:33;20.60;99.90
35258;DHT22;21385;50.878;8.050;2022-07-21T15:50:59;20.50;99.90
35258;DHT22;21385;50.878;8.050;2022-07-21T15:53:25;20.50;99.90
35258;DHT22;21385;50.878;8.050;2022-07-21T15:55:50;20.40;99.90
35258;DHT22;21385;50.878;8.050;2022-07-21T15:58:16;20.30;99.90
35258;DHT22;21385;50.878;8.050;2022-07-21T16:00:42;20.20;99.90
35258;DHT22;21385;50.878;8.050;2022-07-21T16:03:07;20.10;99.90
35258;DHT22;21385;50.878;8.050;2022-07-21T16:05:33;20.00;99.90
35258;DHT22;21385;50.878;8.050;2022-07-21T16:07:59;20.00;99.90
35258;DHT22;21385;50.878;8.050;2022-07-21T16:10:26;19.90;99.90
35258;DHT22;21385;50.878;8.050;2022-07-21T16:12:52;19.90;99.90
35258;DHT22;21385;50.878;8.050;2022-07-21T16:15:19;19.80;99.90
35258;DHT22;21385;50.878;8.050;2022-07-21T16:17:46;19.70;99.90
35258;DHT22;21385;50.878;8.050;2022-07-21T16:20:13;19.60;99.90
35258;DHT22;21385;50.878;8.050;2022-07-21T16:22:40;19.50;99.90
35258;DHT22;21385;50.878;8.050;2022-07-21T16:25:10;19.40;99.90
35258;DHT22;21385;50.878;8.050;2022-07-21T16:27:36;19.30;99.90
35258;DHT22;21385;50.878;8.050;2022-07-21T16:30:03;19.30;99.90